IW5AKT-5 Musigliano PI IT current weather conditions

sailwx.info

Wind from 142 at 10 knots gusting 13

Air temperature 33.3° C
Dewpoint 11.8° C

Last reported at 2020-Aug-08 13:09 UTC.
Time now 2020-Aug-08 14:02 UTC

Location: N 43°42' E 010°27'.
View on Google Maps.

See reports from other nearby stations

  
Tides and Currents Weather Stations Pressure Air Temp Water Temp Dewpoint Dewpoint Depression Visibility Wind Speed Wind Dir Waves Ship Positions
date/time (UTC)wind fromknots sea level pressurealtimeterstation pressurevisibilityair tempwater tempwave heightnotes
2020-Aug-08 13:09 142 10 gusting 13 33.3
2020-Aug-08 13:04 142 9 gusting 13 33.3
2020-Aug-08 12:59 142 12 gusting 13 33.3
2020-Aug-08 12:54 142 10 gusting 13 33.3
2020-Aug-08 12:49 142 9 gusting 11 33.3
2020-Aug-08 12:44 142 9 gusting 13 33.3
2020-Aug-08 12:39 142 9 gusting 12 32.8
2020-Aug-08 12:34 142 7 gusting 11 33.3
2020-Aug-08 12:29 142 7 gusting 11 33.3
2020-Aug-08 12:24 33.3
2020-Aug-08 12:19 045 9 gusting 13 32.8
2020-Aug-08 12:14 142 6 gusting 9 33.3
2020-Aug-08 12:09 180 5 gusting 6 32.8
2020-Aug-08 12:04 270 9 gusting 12 32.8
2020-Aug-08 11:59 142 6 gusting 9 32.8
2020-Aug-08 11:54 32.8
2020-Aug-08 11:49 142 5 gusting 7 33.3
2020-Aug-08 11:44 270 9 gusting 11 33.3
2020-Aug-08 11:39 33.9
2020-Aug-08 11:34 142 6 gusting 8 33.9
2020-Aug-08 11:29 33.9
2020-Aug-08 11:24 292 6 gusting 7 33.9
2020-Aug-08 11:19 33.9
2020-Aug-08 11:14 315 4 gusting 6 33.9
2020-Aug-08 11:09 045 3 gusting 5 33.9
2020-Aug-08 11:04 33.3
2020-Aug-08 10:59 142 3 gusting 5 33.3
2020-Aug-08 10:54 270 3 gusting 3 33.3
2020-Aug-08 10:49 142 6 gusting 7 33.3
2020-Aug-08 10:44 33.3
2020-Aug-08 10:39 142 3 gusting 4 33.3
2020-Aug-08 10:34 142 4 gusting 6 33.3
2020-Aug-08 10:29 270 5 gusting 6 33.3
2020-Aug-08 10:24 270 6 gusting 9 33.3
2020-Aug-08 10:19 142 3 gusting 3 32.8
2020-Aug-08 10:14 32.8
2020-Aug-08 10:09 270 3 gusting 5 32.8
2020-Aug-08 10:04 045 3 gusting 6 32.8
2020-Aug-08 09:59 045 3 gusting 6 32.8
2020-Aug-08 09:54 142 5 gusting 6 32.8
2020-Aug-08 09:49 045 1 gusting 2 32.8
2020-Aug-08 09:44 142 2 gusting 3 32.2
2020-Aug-08 09:39 045 4 gusting 5 32.2
2020-Aug-08 09:34 142 2 gusting 3 32.2
2020-Aug-08 09:29 142 3 gusting 5 32.2
2020-Aug-08 09:24 142 3 gusting 6 32.2
2020-Aug-08 09:19 142 4 gusting 6 32.2
2020-Aug-08 09:14 045 4 gusting 6 32.2
2020-Aug-08 09:09 142 2 gusting 3 32.2
2020-Aug-08 09:04 142 1 gusting 2 31.7
2020-Aug-08 08:59 045 2 gusting 3 31.7
2020-Aug-08 08:54 142 3 gusting 4 31.1
2020-Aug-08 08:49 142 2 gusting 3 31.1
2020-Aug-08 08:44 142 5 gusting 6 31.1
2020-Aug-08 08:39 142 1 gusting 2 31.1
2020-Aug-08 08:34 30.6
2020-Aug-08 08:29 270 1 gusting 3 30.6
2020-Aug-08 08:24 142 3 gusting 4 30.0
2020-Aug-08 08:19 135 0 gusting 1 29.4
2020-Aug-08 08:14 180 1 gusting 1 29.4
2020-Aug-08 08:09 142 1 gusting 1 28.9
2020-Aug-08 08:04 180 1 gusting 2 28.3
2020-Aug-08 07:59 225 3 gusting 3 28.3
2020-Aug-08 07:53 180 3 gusting 4 28.3
2020-Aug-08 07:49 225 0 gusting 1 27.8
2020-Aug-08 07:44 045 27.2
2020-Aug-08 07:39 225 1 gusting 1 26.7
2020-Aug-08 07:34 225 0 gusting 1 26.7
2020-Aug-08 07:29 225 2 gusting 3 26.1
2020-Aug-08 07:24 225 1 gusting 2 26.1
2020-Aug-08 07:19 270 1 gusting 1 25.6
2020-Aug-08 07:14 25.6
2020-Aug-08 07:09 225 0 gusting 1 25.6
2020-Aug-08 07:04 270 1 gusting 1 25.0
2020-Aug-08 06:59 225 25.0
2020-Aug-08 06:54 142 0 gusting 1 24.4
2020-Aug-08 06:49 225 0 gusting 1 24.4
2020-Aug-08 06:44 135 0 gusting 1 24.4
2020-Aug-08 06:39 270 2 gusting 3 24.4
2020-Aug-08 06:35 142 1 gusting 1 24.4
2020-Aug-08 06:29 142 0 gusting 1 24.4
2020-Aug-08 06:24 142 1 gusting 2 24.4
2020-Aug-08 06:19 142 23.9
2020-Aug-08 06:14 135 0 gusting 1 23.3
2020-Aug-08 06:09 142 0 gusting 1 23.3
2020-Aug-08 06:04 135 0 gusting 1 23.3
2020-Aug-08 05:59 142 0 gusting 1 22.8
2020-Aug-08 05:54 142 1 gusting 1 22.2
2020-Aug-08 05:49 142 0 gusting 1 22.2
2020-Aug-08 05:44 045 0 gusting 1 21.7
2020-Aug-08 05:39 142 1 gusting 2 21.1
2020-Aug-08 05:34 180 1 gusting 2 21.1
2020-Aug-08 05:29 135 0 gusting 1 20.6
2020-Aug-08 05:24 135 20.6
2020-Aug-08 05:19 180 1 gusting 1 20.0
2020-Aug-08 05:14 180 0 gusting 1 20.0
2020-Aug-08 05:09 202 20.0
2020-Aug-08 05:04 270 2 gusting 3 20.0
2020-Aug-08 04:59 270 0 gusting 1 19.4
2020-Aug-08 04:54 270 0 gusting 1 19.4
2020-Aug-08 04:49 180 19.4
2020-Aug-08 04:44 135 0 gusting 1 19.4
2020-Aug-08 04:39 225 0 gusting 1 19.4
2020-Aug-08 04:34 135 19.4
2020-Aug-08 04:29 045 19.4
2020-Aug-08 04:24 180 19.4
2020-Aug-08 04:19 135 0 gusting 1 19.4
2020-Aug-08 04:14 135 0 gusting 1 19.4
2020-Aug-08 04:09 142 19.4
2020-Aug-08 04:04 142 19.4
2020-Aug-08 03:59 135 19.4
2020-Aug-08 03:54 135 19.4
2020-Aug-08 03:49 135 19.4
2020-Aug-08 03:44 045 1 gusting 1 19.4
2020-Aug-08 03:39 045 1 gusting 1 19.4
2020-Aug-08 03:34 142 0 gusting 1 19.4
2020-Aug-08 03:29 142 19.4
2020-Aug-08 03:24 045 3 gusting 3 20.0
2020-Aug-08 03:19 142 3 gusting 3 20.0
2020-Aug-08 03:14 142 20.0
2020-Aug-08 03:09 142 20.0
2020-Aug-08 03:04 135 20.0
2020-Aug-08 02:59 142 0 gusting 1 20.6
2020-Aug-08 02:54 135 0 gusting 1 20.6
2020-Aug-08 02:49 142 20.6
2020-Aug-08 02:44 142 0 gusting 1 20.6
2020-Aug-08 02:39 180 0 gusting 1 20.6
2020-Aug-08 02:34 225 20.6
2020-Aug-08 02:29 142 20.6
2020-Aug-08 02:24 142 20.6
2020-Aug-08 02:19 142 20.6
2020-Aug-08 02:14 225 0 gusting 1 20.6
2020-Aug-08 02:09 142 20.6
2020-Aug-08 02:04 135 1 gusting 1 20.6
2020-Aug-08 01:59 135 0 gusting 1 20.6
2020-Aug-08 01:54 045 20.6
2020-Aug-08 01:49 045 20.6
2020-Aug-08 01:44 20.6
2020-Aug-08 01:39 142 20.6
2020-Aug-08 01:34 142 21.1
2020-Aug-08 01:29 142 21.1
2020-Aug-08 01:24 142 0 gusting 0 21.1
2020-Aug-08 01:19 270 21.1
2020-Aug-08 01:14 270 21.1
2020-Aug-08 01:09 225 1 gusting 1 21.1
2020-Aug-08 01:04 225 1 gusting 1 21.1
2020-Aug-08 00:59 225 0 gusting 1 21.1
2020-Aug-08 00:54 180 21.1
2020-Aug-08 00:49 142 21.1
2020-Aug-08 00:44 135 21.1
2020-Aug-08 00:39 130 21.7
2020-Aug-08 00:34 045 21.7
2020-Aug-08 00:29 21.7
2020-Aug-08 00:24 045 0 gusting 1 21.7
2020-Aug-08 00:19 142 21.7
2020-Aug-08 00:14 270 21.7
2020-Aug-08 00:09 270 21.7
2020-Aug-08 00:04 142 2 gusting 3 21.7
2020-Aug-07 23:59 045 1 gusting 1 21.7
2020-Aug-07 23:54 045 22.2
2020-Aug-07 23:49 045 22.2
2020-Aug-07 23:44 22.2
2020-Aug-07 23:39 142 22.2
2020-Aug-07 23:34 142 22.2
2020-Aug-07 23:29 142 22.2
2020-Aug-07 23:24 142 22.2
2020-Aug-07 23:19 142 22.2
2020-Aug-07 23:14 045 1 gusting 2 22.8
2020-Aug-07 23:09 045 0 gusting 1 22.8
2020-Aug-07 23:04 142 22.8
2020-Aug-07 22:59 180 0 gusting 1 22.8
2020-Aug-07 22:54 142 1 gusting 1 22.8
2020-Aug-07 22:49 135 1 gusting 1 22.8
2020-Aug-07 22:44 045 1 gusting 1 22.8
2020-Aug-07 22:39 142 0 gusting 1 23.3
2020-Aug-07 22:34 142 0 gusting 1 23.3
2020-Aug-07 22:29 225 23.3
2020-Aug-07 22:24 180 23.3
2020-Aug-07 22:19 142 23.3
2020-Aug-07 22:14 142 23.3
2020-Aug-07 22:09 270 23.3
2020-Aug-07 22:04 142 0 gusting 0 23.9
2020-Aug-07 21:59 142 0 gusting 1 23.9
2020-Aug-07 21:54 045 0 gusting 1 23.9
2020-Aug-07 21:49 142 1 gusting 1 23.9
2020-Aug-07 21:44 270 1 gusting 2 23.9
2020-Aug-07 21:39 142 0 gusting 1 24.4
2020-Aug-07 21:34 142 1 gusting 2 24.4
2020-Aug-07 21:29 135 0 gusting 1 24.4
2020-Aug-07 21:24 142 24.4
2020-Aug-07 21:19 135 24.4
2020-Aug-07 21:14 225 24.4
2020-Aug-07 21:09 225 24.4
2020-Aug-07 21:04 225 1 gusting 1 24.4
2020-Aug-07 20:59 225 25.0
2020-Aug-07 20:54 225 1 gusting 1 25.0
2020-Aug-07 20:48 180 25.0
2020-Aug-07 20:44 180 0 gusting 1 25.0
2020-Aug-07 20:38 180 1 gusting 1 25.0
2020-Aug-07 20:34 180 1 gusting 2 25.0
2020-Aug-07 20:29 180 0 gusting 1 25.0
2020-Aug-07 20:24 225 0 gusting 1 25.0
2020-Aug-07 20:19 180 1 gusting 1 25.6
2020-Aug-07 20:14 180 0 gusting 1 25.6
2020-Aug-07 20:09 142 25.6
2020-Aug-07 20:04 142 1 gusting 1 26.1
2020-Aug-07 19:59 135 1 gusting 1 26.1
2020-Aug-07 19:54 142 0 gusting 1 26.1
2020-Aug-07 19:49 045 26.1
2020-Aug-07 19:44 045 1 gusting 1 26.1
2020-Aug-07 19:39 045 1 gusting 1 26.7
2020-Aug-07 19:33 270 1 gusting 2 26.7
2020-Aug-07 19:29 270 1 gusting 2 26.7
2020-Aug-07 19:24 142 0 gusting 1 26.7
2020-Aug-07 19:19 142 2 gusting 3 26.7
2020-Aug-07 19:14 142 1 gusting 3 26.7
2020-Aug-07 19:09 26.7
2020-Aug-07 19:04 045 1 gusting 1 27.2
2020-Aug-07 18:59 045 1 gusting 2 27.2
2020-Aug-07 18:54 142 0 gusting 1 27.2
2020-Aug-07 18:49 142 0 gusting 1 27.8
2020-Aug-07 18:44 142 0 gusting 1 27.8
2020-Aug-07 18:39 27.8
2020-Aug-07 18:34 142 27.8
2020-Aug-07 18:29 045 0 gusting 1 27.8
2020-Aug-07 18:24 225 1 gusting 1 27.8
2020-Aug-07 18:19 270 1 gusting 1 28.3
2020-Aug-07 18:14 142 1 gusting 1 28.3
2020-Aug-07 18:09 142 1 gusting 3 28.3
2020-Aug-07 18:04 142 2 gusting 3 28.3
2020-Aug-07 17:59 142 1 gusting 2 28.9
2020-Aug-07 17:54 142 1 gusting 3 28.9
2020-Aug-07 17:49 142 2 gusting 3 28.9
2020-Aug-07 17:44 28.9
2020-Aug-07 17:39 29.4
2020-Aug-07 17:34 142 2 gusting 3 29.4
2020-Aug-07 17:29 142 2 gusting 3 29.4
2020-Aug-07 17:24 142 3 gusting 5 29.4
2020-Aug-07 17:19 142 4 gusting 6 29.4
2020-Aug-07 17:14 142 3 gusting 5 30.0
2020-Aug-07 17:10 270 6 gusting 6 30.0
2020-Aug-07 17:04 142 3 gusting 4 30.0
2020-Aug-07 16:59 142 5 gusting 6 30.0
2020-Aug-07 16:54 142 5 gusting 6 30.6
2020-Aug-07 16:49 142 3 gusting 5 30.6
2020-Aug-07 16:44 30.6
2020-Aug-07 16:39 142 6 gusting 8 30.6
2020-Aug-07 16:34 142 6 gusting 7 30.6
2020-Aug-07 16:29 142 6 gusting 7 30.6
2020-Aug-07 16:24 142 6 gusting 7 30.6
2020-Aug-07 16:19 142 6 gusting 9 30.6
2020-Aug-07 16:14 270 7 gusting 9 30.6
2020-Aug-07 16:09 142 6 gusting 8 30.6
2020-Aug-07 16:04 270 6 gusting 9 30.6
2020-Aug-07 15:59 142 5 gusting 6 30.6
2020-Aug-07 15:54 270 6 gusting 9 31.1
2020-Aug-07 15:49 270 6 gusting 9 31.1
2020-Aug-07 15:44 142 6 gusting 8 31.1
2020-Aug-07 15:39 270 6 gusting 8 31.1
2020-Aug-07 15:34 142 6 gusting 7 31.1
2020-Aug-07 15:29 142 6 gusting 9 31.1
2020-Aug-07 15:24 142 8 gusting 13 31.1
2020-Aug-07 15:19 31.1
2020-Aug-07 15:14 31.7
2020-Aug-07 15:09 270 7 gusting 10 31.7
2020-Aug-07 15:04 142 6 gusting 9 31.7
2020-Aug-07 14:59 142 6 gusting 10 31.7
2020-Aug-07 14:54 142 9 gusting 10 31.7
2020-Aug-07 14:49 142 8 gusting 12 31.7
2020-Aug-07 14:44 142 6 gusting 7 31.7
2020-Aug-07 14:39 142 9 gusting 12 31.7
2020-Aug-07 14:34 142 6 gusting 8 31.7
2020-Aug-07 14:29 142 6 gusting 6 31.7
2020-Aug-07 14:24 142 6 gusting 7 31.7
2020-Aug-07 14:19 130 7 gusting 9 32.2
2020-Aug-07 14:14 142 6 gusting 7 32.2
2020-Aug-07 14:09 142 5 gusting 7 32.2
2020-Aug-07 14:04 142 6 gusting 9 32.2
2020-Aug-07 13:59 270 6 gusting 8 32.2
2020-Aug-07 13:54 142 5 gusting 7 32.2
2020-Aug-07 13:49 142 3 gusting 5 32.2
2020-Aug-07 13:44 270 6 gusting 8 32.2
2020-Aug-07 13:39 142 6 gusting 7 32.2
2020-Aug-07 13:34 32.2
2020-Aug-07 13:29 142 6 gusting 6 32.2
2020-Aug-07 13:24 270 6 gusting 6 32.2
2020-Aug-07 13:19 142 6 gusting 8 32.2
2020-Aug-07 13:14 270 4 gusting 6 32.2
2020-Aug-07 13:09 32.2
2020-Aug-07 13:04 142 5 gusting 6 32.2
2020-Aug-07 12:59 142 6 gusting 9 32.2
2020-Aug-07 12:54 142 6 gusting 6 32.2
2020-Aug-07 12:49 045 6 gusting 9 32.2
2020-Aug-07 12:44 142 6 gusting 9 32.2
2020-Aug-07 12:39 32.2
2020-Aug-07 12:34 142 3 gusting 5 32.2
2020-Aug-07 12:29 045 3 gusting 4 32.2
2020-Aug-07 12:24 045 3 gusting 4 32.2
2020-Aug-07 12:19 32.2
2020-Aug-07 12:14 32.2
2020-Aug-07 12:09 225 4 gusting 6 32.2
2020-Aug-07 12:04 142 3 gusting 5 32.2
2020-Aug-07 11:59 142 3 gusting 4 31.7
2020-Aug-07 11:54 142 3 gusting 5 31.7
2020-Aug-07 11:49 142 6 gusting 8 31.7
2020-Aug-07 11:44 31.1
2020-Aug-07 11:39 31.7
2020-Aug-07 11:34 142 4 gusting 5 31.1
2020-Aug-07 11:29 31.7
2020-Aug-07 11:24 31.7
2020-Aug-07 11:19 142 5 gusting 6 31.7
2020-Aug-07 11:14 045 7 gusting 12 31.7
2020-Aug-07 11:09 045 7 gusting 12 31.7
2020-Aug-07 11:04 31.7
2020-Aug-07 10:59 270 4 gusting 6 31.7
2020-Aug-07 10:54 270 6 gusting 6 31.7
2020-Aug-07 10:49 180 3 gusting 3 31.7
2020-Aug-07 10:44 142 2 gusting 3 31.7
2020-Aug-07 10:39 045 8 gusting 10 31.7
2020-Aug-07 10:34 135 1 gusting 1 31.1
2020-Aug-07 10:29 142 1 gusting 1 30.6
2020-Aug-07 10:24 30.6
2020-Aug-07 10:19 142 4 gusting 6 30.6
2020-Aug-07 10:14 142 3 gusting 5 30.6
2020-Aug-07 10:09 270 4 gusting 6 30.6
2020-Aug-07 10:04 142 3 gusting 5 30.6
2020-Aug-07 09:59 225 3 gusting 4 30.0
2020-Aug-07 09:54 270 3 gusting 4 30.6
2020-Aug-07 09:49 142 3 gusting 6 30.6
2020-Aug-07 09:44 045 3 gusting 5 30.6
2020-Aug-07 09:39 142 4 gusting 6 30.6
2020-Aug-07 09:34 270 2 gusting 3 30.6
2020-Aug-07 09:29 270 3 gusting 3 30.0
2020-Aug-07 09:24 142 3 gusting 4 30.0
2020-Aug-07 09:19 142 1 gusting 3 30.0
2020-Aug-07 09:14 142 1 gusting 1 30.6
2020-Aug-07 09:09 135 0 gusting 1 30.0
2020-Aug-07 09:03 142 1 gusting 2 29.4
2020-Aug-07 08:59 180 3 gusting 4 29.4
2020-Aug-07 08:54 225 2 gusting 3 29.4
2020-Aug-07 08:49 28.9
2020-Aug-07 08:44 142 3 gusting 4 28.9
2020-Aug-07 08:39 142 0 gusting 1 28.3
2020-Aug-07 08:34 180 0 gusting 1 28.3
2020-Aug-07 08:29 142 1 gusting 1 27.8
2020-Aug-07 08:24 142 27.8
2020-Aug-07 08:19 225 2 gusting 3 27.8
2020-Aug-07 08:14 180 3 gusting 4 27.8
2020-Aug-07 08:09 225 0 gusting 1 27.8
2020-Aug-07 08:04 142 1 gusting 2 27.8
2020-Aug-07 07:59 27.8
2020-Aug-07 07:54 180 2 gusting 3 27.2
2020-Aug-07 07:49 180 1 gusting 2 27.2
2020-Aug-07 07:44 180 0 gusting 1 27.2
2020-Aug-07 07:39 135 3 gusting 3 26.7
2020-Aug-07 07:34 142 1 gusting 1 26.7
2020-Aug-07 07:29 135 1 gusting 1 26.7
2020-Aug-07 07:24 225 3 gusting 4 26.1
2020-Aug-07 07:19 225 3 gusting 4 26.1
2020-Aug-07 07:14 142 0 gusting 1 25.6
2020-Aug-07 07:09 135 3 gusting 3 25.6
2020-Aug-07 07:04 135 1 gusting 1 25.6
2020-Aug-07 06:59 180 1 gusting 2 25.0
2020-Aug-07 06:54 180 1 gusting 2 25.0
2020-Aug-07 06:49 142 0 gusting 1 24.4
2020-Aug-07 06:44 225 1 gusting 2 24.4
2020-Aug-07 06:39 135 1 gusting 1 24.4
2020-Aug-07 06:34 225 1 gusting 1 24.4
2020-Aug-07 06:29 180 24.4
2020-Aug-07 06:24 135 0 gusting 0 24.4
2020-Aug-07 06:19 142 1 gusting 2 23.9
2020-Aug-07 06:14 135 0 gusting 1 23.9
2020-Aug-07 06:09 135 0 gusting 1 23.3
2020-Aug-07 06:04 135 0 gusting 1 23.3
2020-Aug-07 05:59 180 0 gusting 1 22.8
2020-Aug-07 05:54 270 0 gusting 1 22.8
2020-Aug-07 05:49 135 0 gusting 1 22.2
2020-Aug-07 05:44 142 1 gusting 1 21.7
2020-Aug-07 05:39 142 21.7
2020-Aug-07 05:34 225 21.1
2020-Aug-07 05:29 180 21.1
2020-Aug-07 05:24 21.1
2020-Aug-07 05:19 045 1 gusting 1 20.6
2020-Aug-07 05:14 045 0 gusting 1 20.0
2020-Aug-07 05:09 045 0 gusting 1 20.0
2020-Aug-07 05:04 142 0 gusting 1 19.4
2020-Aug-07 04:59 045 1 gusting 1 19.4
2020-Aug-07 04:54 142 0 gusting 1 19.4
2020-Aug-07 04:49 142 1 gusting 1 20.0
2020-Aug-07 04:44 142 20.0
2020-Aug-07 04:39 142 19.4
2020-Aug-07 04:34 135 0 gusting 1 20.0
2020-Aug-07 04:29 20.0
2020-Aug-07 04:24 20.0
2020-Aug-07 04:19 20.0
2020-Aug-07 04:14 180 0 gusting 1 20.0
2020-Aug-07 04:09 142 0 gusting 1 19.4
2020-Aug-07 04:04 142 1 gusting 1 20.0
2020-Aug-07 03:59 142 20.0
2020-Aug-07 03:54 142 0 gusting 1 20.0
2020-Aug-07 03:49 135 0 gusting 1 20.0
2020-Aug-07 03:44 142 20.0
2020-Aug-07 03:39 045 20.0
2020-Aug-07 03:34 225 0 gusting 0 20.0
2020-Aug-07 03:29 225 20.0
2020-Aug-07 03:24 142 20.0
2020-Aug-07 03:19 180 0 gusting 1 20.0
2020-Aug-07 03:14 142 1 gusting 1 20.0
2020-Aug-07 03:09 135 20.0
2020-Aug-07 03:04 142 2 gusting 3 20.0
2020-Aug-07 02:59 142 2 gusting 3 20.0
2020-Aug-07 02:54 045 20.0
2020-Aug-07 02:49 045 0 gusting 1 20.6
2020-Aug-07 02:44 142 0 gusting 1 20.6
2020-Aug-07 02:39 045 1 gusting 1 20.6
2020-Aug-07 02:34 045 1 gusting 2 20.6
2020-Aug-07 02:29 21.1
2020-Aug-07 02:24 045 21.1
2020-Aug-07 02:19 142 0 gusting 1 21.1
2020-Aug-07 02:14 142 0 gusting 1 21.1
2020-Aug-07 02:09 135 1 gusting 1 21.7
2020-Aug-07 02:04 270 21.7
2020-Aug-07 01:59 270 21.7
2020-Aug-07 01:54 135 0 gusting 1 21.7
2020-Aug-07 01:49 142 21.7
2020-Aug-07 01:44 142 22.2
2020-Aug-07 01:39 22.2
2020-Aug-07 01:34 142 0 gusting 1 22.2
2020-Aug-07 01:29 045 0 gusting 1 22.2
2020-Aug-07 01:24 180 1 gusting 1 22.2
2020-Aug-07 01:19 142 22.2
2020-Aug-07 01:14 142 22.2
2020-Aug-07 01:09 142 22.2
2020-Aug-07 01:04 045 22.2
2020-Aug-07 00:59 045 22.2
2020-Aug-07 00:54 045 1 gusting 1 22.2
2020-Aug-07 00:49 180 1 gusting 1 22.2
2020-Aug-07 00:44 180 1 gusting 1 22.2
2020-Aug-07 00:39 135 0 gusting 0 22.2
2020-Aug-07 00:33 225 22.2
2020-Aug-07 00:29 135 1 gusting 2 22.2
2020-Aug-07 00:24 180 0 gusting 1 22.8
2020-Aug-07 00:19 142 0 gusting 1 22.8
2020-Aug-07 00:14 180 22.8
2020-Aug-07 00:09 142 0 gusting 1 22.8
2020-Aug-07 00:04 142 0 gusting 1 22.8
2020-Aug-06 23:59 142 1 gusting 2 22.8
2020-Aug-06 23:54 142 2 gusting 3 23.3
2020-Aug-06 23:49 045 1 gusting 2 23.3
2020-Aug-06 23:44 045 1 gusting 3 23.3
2020-Aug-06 23:39 142 3 gusting 5 23.3
2020-Aug-06 23:34 045 1 gusting 2 23.3
2020-Aug-06 23:29 045 1 gusting 1 23.3
2020-Aug-06 23:24 135 23.9
2020-Aug-06 23:19 135 23.9
2020-Aug-06 23:14 045 24.4
2020-Aug-06 23:09 315 1 gusting 1 24.4
2020-Aug-06 23:04 180 1 gusting 1 25.0
2020-Aug-06 22:59 142 25.0
2020-Aug-06 22:54 25.0
2020-Aug-06 22:49 135 1 gusting 1 25.6
2020-Aug-06 22:44 045 0 gusting 1 25.6
2020-Aug-06 22:39 045 25.6
2020-Aug-06 22:34 25.6
2020-Aug-06 22:29 142 2 gusting 3 25.6
2020-Aug-06 22:24 045 3 gusting 4 25.6
2020-Aug-06 22:19 142 2 gusting 3 25.6
2020-Aug-06 22:14 142 1 gusting 3 25.6
2020-Aug-06 22:09 045 3 gusting 5 25.6
2020-Aug-06 22:04 142 1 gusting 3 25.6
2020-Aug-06 21:59 142 1 gusting 2 25.6
2020-Aug-06 21:54 142 3 gusting 4 25.6
2020-Aug-06 21:49 25.6
2020-Aug-06 21:44 142 1 gusting 1 26.1
2020-Aug-06 21:39 142 1 gusting 3 26.1
2020-Aug-06 21:34 142 3 gusting 4 26.1
2020-Aug-06 21:29 142 4 gusting 6 25.6
2020-Aug-06 21:24 142 4 gusting 6 25.6
2020-Aug-06 21:19 045 3 gusting 4 25.6
2020-Aug-06 21:14 142 3 gusting 5 24.4
2020-Aug-06 21:09 142 3 gusting 5 24.4
2020-Aug-06 21:04 142 3 gusting 6 23.9
2020-Aug-06 20:59 142 3 gusting 5 23.3
2020-Aug-06 20:54 045 2 gusting 3 23.9
2020-Aug-06 20:49 23.9
2020-Aug-06 20:44 135 1 gusting 1 23.9
2020-Aug-06 20:39 045 0 gusting 1 23.9
2020-Aug-06 20:34 180 0 gusting 1 23.9
2020-Aug-06 20:29 180 1 gusting 1 23.9
2020-Aug-06 20:24 24.4
2020-Aug-06 20:19 045 1 gusting 2 24.4
2020-Aug-06 20:14 24.4
2020-Aug-06 20:09 142 0 gusting 1 24.4
2020-Aug-06 20:04 135 24.4
2020-Aug-06 19:59 142 1 gusting 1 24.4
2020-Aug-06 19:54 180 0 gusting 1 24.4
2020-Aug-06 19:49 180 24.4
2020-Aug-06 19:44 142 1 gusting 2 25.0
2020-Aug-06 19:39 142 1 gusting 1 25.0
2020-Aug-06 19:34 142 0 gusting 1 25.0
2020-Aug-06 19:29 180 25.0
2020-Aug-06 19:24 045 1 gusting 1 25.0
2020-Aug-06 19:19 142 1 gusting 1 25.6
2020-Aug-06 19:14 045 0 gusting 1 25.6
2020-Aug-06 19:09 25.6
2020-Aug-06 19:04 25.6
2020-Aug-06 18:59 045 1 gusting 1 26.1
2020-Aug-06 18:54 045 0 gusting 1 26.1
2020-Aug-06 18:49 045 1 gusting 1 26.1
2020-Aug-06 18:44 26.7
2020-Aug-06 18:39 26.7
2020-Aug-06 18:34 26.7
2020-Aug-06 18:29 270 0 gusting 1 26.7
2020-Aug-06 18:24 27.2
2020-Aug-06 18:19 142 1 gusting 1 27.2
2020-Aug-06 18:14 142 1 gusting 1 27.2
2020-Aug-06 18:09 142 1 gusting 2 27.8
2020-Aug-06 18:04 270 0 gusting 1 27.8
2020-Aug-06 17:59 142 1 gusting 2 27.8
2020-Aug-06 17:54 142 2 gusting 3 28.3
2020-Aug-06 17:49 142 1 gusting 2 28.3
2020-Aug-06 17:44 270 1 gusting 3 28.3
2020-Aug-06 17:39 142 1 gusting 2 28.3
2020-Aug-06 17:34 28.3
2020-Aug-06 17:29 270 0 gusting 1 28.3
2020-Aug-06 17:24 142 3 gusting 6 28.9
2020-Aug-06 17:19 142 2 gusting 3 28.9
2020-Aug-06 17:14 270 3 gusting 5 28.9
2020-Aug-06 17:09 270 3 gusting 4 28.9
2020-Aug-06 17:04 142 3 gusting 4 28.9
2020-Aug-06 16:59 142 4 gusting 6 28.9
2020-Aug-06 16:54 142 3 gusting 4 28.9
2020-Aug-06 16:49 142 4 gusting 6 29.4
2020-Aug-06 16:44 225 3 gusting 4 29.4
2020-Aug-06 16:39 142 3 gusting 3 29.4
2020-Aug-06 16:34 142 4 gusting 5 28.9
2020-Aug-06 16:29 28.9
2020-Aug-06 16:24 270 2 gusting 3 28.9
2020-Aug-06 16:19 270 3 gusting 6 28.9
2020-Aug-06 16:14 225 5 gusting 6 29.4
2020-Aug-06 16:09 30.0
2020-Aug-06 16:04 142 6 gusting 6 30.0
2020-Aug-06 15:59 29.4
2020-Aug-06 15:54 29.4
2020-Aug-06 15:49 142 6 gusting 7 29.4
2020-Aug-06 15:44 142 3 gusting 6 29.4
2020-Aug-06 15:39 130 4 gusting 6 29.4
2020-Aug-06 15:34 142 7 gusting 9 30.0
2020-Aug-06 15:29 142 4 gusting 6 30.0
2020-Aug-06 15:24 29.4
2020-Aug-06 15:19 142 6 gusting 9 30.0
2020-Aug-06 15:14 315 2 gusting 3 29.4
2020-Aug-06 15:09 225 6 gusting 10 30.0
2020-Aug-06 15:04 270 6 gusting 7 29.4
2020-Aug-06 14:59 270 5 gusting 6 30.0
2020-Aug-06 14:54 30.0
2020-Aug-06 14:49 30.0
2020-Aug-06 14:44 180 6 gusting 7 30.0
2020-Aug-06 14:39 142 4 gusting 6 29.4
2020-Aug-06 14:34 142 6 gusting 6 29.4
2020-Aug-06 14:29 225 3 gusting 6 29.4
2020-Aug-06 14:24 142 6 gusting 7 29.4
2020-Aug-06 14:19 270 4 gusting 6 29.4
2020-Aug-06 14:14 142 3 gusting 4 29.4
2020-Aug-06 14:09 142 8 gusting 9 29.4
2020-Aug-06 14:04 270 6 gusting 6 29.4